createdAt,value
2023-10-02T00:01:59.700Z,7.80
2023-10-02T00:04:28.072Z,7.70
2023-10-02T00:07:08.009Z,7.50
2023-10-02T00:09:37.126Z,7.50
2023-10-02T00:12:13.787Z,7.70
2023-10-02T00:14:43.456Z,7.90
2023-10-02T00:17:15.956Z,8.20
2023-10-02T00:19:58.441Z,7.90
2023-10-02T00:22:45.142Z,7.90
2023-10-02T00:28:31.793Z,6.60
2023-10-02T00:30:59.895Z,8.10
2023-10-02T00:33:29.357Z,8.20
2023-10-02T00:35:57.904Z,8.00
2023-10-02T00:38:25.990Z,8.60
2023-10-02T00:40:53.815Z,7.80
2023-10-02T00:43:37.082Z,8.30
2023-10-02T00:46:05.200Z,7.90
2023-10-02T00:48:34.946Z,8.00
2023-10-02T00:51:08.021Z,8.40
2023-10-02T00:53:57.796Z,7.80
2023-10-02T00:56:26.225Z,7.80
2023-10-02T00:58:58.869Z,8.40
2023-10-02T01:01:27.920Z,8.30
2023-10-02T01:04:13.872Z,8.00
2023-10-02T01:07:06.867Z,8.10
2023-10-02T01:09:35.695Z,8.40
2023-10-02T01:12:04.116Z,8.50
2023-10-02T01:15:01.303Z,9.40
2023-10-02T01:17:30.216Z,9.40
2023-10-02T01:20:02.756Z,9.00
2023-10-02T01:22:44.695Z,8.30
2023-10-02T01:25:18.215Z,8.80
2023-10-02T01:27:49.304Z,8.20
2023-10-02T01:30:25.873Z,8.70
2023-10-02T01:33:13.501Z,8.70
2023-10-02T01:35:50.168Z,9.30
2023-10-02T01:38:39.004Z,8.70
2023-10-02T01:41:09.957Z,9.20
2023-10-02T01:43:44.568Z,9.90
2023-10-02T01:46:19.859Z,9.90
2023-10-02T01:48:54.064Z,8.70
2023-10-02T01:51:29.636Z,8.60
2023-10-02T01:54:00.251Z,9.00
2023-10-02T01:56:30.950Z,9.10
2023-10-02T01:59:11.383Z,8.90
2023-10-02T02:01:58.744Z,8.70
2023-10-02T02:04:29.752Z,9.20
2023-10-02T02:06:59.602Z,8.60
2023-10-02T02:09:32.805Z,8.90
2023-10-02T02:12:09.544Z,9.40
2023-10-02T02:15:04.108Z,8.70
2023-10-02T02:17:35.414Z,8.30
2023-10-02T02:20:12.788Z,9.10
2023-10-02T02:22:41.031Z,8.80
2023-10-02T02:25:09.318Z,8.90
2023-10-02T02:27:38.055Z,9.20
2023-10-02T02:30:11.776Z,8.60
2023-10-02T02:32:46.373Z,9.20
2023-10-02T02:35:19.254Z,9.10
2023-10-02T02:37:47.208Z,9.70
2023-10-02T02:40:24.076Z,9.50
2023-10-02T02:42:55.771Z,9.60
2023-10-02T02:45:32.379Z,9.70
2023-10-02T02:48:07.500Z,9.40
2023-10-02T02:50:43.666Z,9.90
2023-10-02T02:53:24.554Z,9.80
2023-10-02T02:56:24.054Z,9.90
2023-10-02T02:58:57.596Z,9.70
2023-10-02T03:01:26.657Z,10.50
2023-10-02T03:03:57.783Z,9.90
2023-10-02T03:06:26.163Z,9.90
2023-10-02T03:08:54.580Z,9.50
2023-10-02T03:11:24.531Z,10.20
2023-10-02T03:13:52.806Z,9.70
2023-10-02T03:16:30.807Z,9.40
2023-10-02T03:19:04.685Z,9.80
2023-10-02T03:21:32.809Z,9.90
2023-10-02T03:24:01.523Z,9.80
2023-10-02T03:26:35.410Z,9.90
2023-10-02T03:29:12.797Z,10.10
2023-10-02T03:31:52.084Z,10.10
2023-10-02T03:34:32.375Z,9.60
2023-10-02T03:37:09.923Z,10.20
2023-10-02T03:39:58.512Z,10.10
2023-10-02T03:42:37.650Z,10.10
2023-10-02T03:45:06.637Z,10.70
2023-10-02T03:47:35.682Z,10.70
2023-10-02T03:50:11.694Z,10.50
2023-10-02T03:52:42.550Z,11.20
2023-10-02T03:55:19.412Z,10.30
2023-10-02T03:57:52.371Z,11.00
2023-10-02T04:00:44.511Z,10.80
2023-10-02T04:03:13.015Z,10.60
2023-10-02T04:05:44.794Z,10.60
2023-10-02T04:08:23.653Z,11.20
2023-10-02T04:10:57.959Z,11.10
2023-10-02T04:13:34.040Z,11.10
2023-10-02T04:16:22.942Z,11.60
2023-10-02T04:19:00.256Z,11.30
2023-10-02T04:21:34.550Z,11.80
2023-10-02T04:24:06.662Z,12.10
2023-10-02T04:26:35.157Z,11.40
2023-10-02T04:29:16.720Z,11.70
2023-10-02T04:31:46.526Z,12.10
2023-10-02T04:34:31.111Z,12.10
2023-10-02T04:36:59.261Z,12.20
2023-10-02T04:39:32.811Z,12.30
2023-10-02T04:42:21.138Z,11.80
2023-10-02T04:44:59.576Z,12.90
2023-10-02T04:47:29.032Z,12.40
2023-10-02T04:50:05.652Z,12.30
2023-10-02T04:52:58.486Z,13.40
2023-10-02T04:55:29.503Z,13.30
2023-10-02T04:58:05.896Z,13.70
2023-10-02T05:00:34.264Z,14.30
2023-10-02T05:03:20.232Z,14.30
2023-10-02T05:05:50.891Z,14.30
2023-10-02T05:08:20.750Z,15.20
2023-10-02T05:11:06.058Z,14.10
2023-10-02T05:13:54.760Z,14.00
2023-10-02T05:16:40.411Z,14.20
2023-10-02T05:19:10.171Z,15.10
2023-10-02T05:21:50.793Z,15.00
2023-10-02T05:24:19.965Z,14.40
2023-10-02T05:26:48.739Z,14.20
2023-10-02T05:29:38.214Z,14.30
2023-10-02T05:32:17.419Z,13.20
2023-10-02T05:35:00.156Z,12.50
2023-10-02T05:37:35.275Z,13.30
2023-10-02T05:40:35.740Z,12.70
2023-10-02T05:43:06.601Z,12.20
2023-10-02T05:45:40.230Z,11.70
2023-10-02T05:48:10.086Z,12.30
2023-10-02T05:50:42.033Z,12.00
2023-10-02T05:53:13.262Z,11.40
2023-10-02T05:56:00.099Z,11.60
2023-10-02T05:58:34.151Z,11.00
2023-10-02T06:01:08.251Z,11.40
2023-10-02T06:03:38.643Z,10.60
2023-10-02T06:06:19.808Z,10.70
2023-10-02T06:09:03.110Z,10.60
2023-10-02T06:11:35.371Z,10.30
2023-10-02T06:14:11.549Z,9.80
2023-10-02T06:16:42.568Z,9.90
2023-10-02T06:19:15.278Z,9.90
2023-10-02T06:22:01.938Z,9.80
2023-10-02T06:24:30.117Z,9.70
2023-10-02T06:26:59.278Z,9.60
2023-10-02T06:29:41.753Z,9.60
2023-10-02T06:32:23.942Z,9.60
2023-10-02T06:34:59.440Z,10.10
2023-10-02T06:37:38.146Z,9.60
2023-10-02T06:40:16.430Z,10.30
2023-10-02T06:42:50.962Z,11.20
2023-10-02T06:45:22.088Z,10.90
2023-10-02T06:47:50.324Z,10.90
2023-10-02T06:50:37.337Z,10.10
2023-10-02T06:53:07.911Z,9.70
2023-10-02T06:55:36.177Z,9.40
2023-10-02T06:58:04.286Z,9.30
2023-10-02T07:00:52.142Z,9.30
2023-10-02T07:03:20.108Z,8.60
2023-10-02T07:05:51.917Z,8.50
2023-10-02T07:08:22.631Z,8.70
2023-10-02T07:10:51.831Z,8.90
2023-10-02T07:13:21.420Z,9.00
2023-10-02T07:16:01.561Z,8.50
2023-10-02T07:18:46.732Z,8.60
2023-10-02T07:21:18.303Z,8.30
2023-10-02T07:23:46.664Z,8.10
2023-10-02T07:26:21.186Z,8.40
2023-10-02T07:28:52.791Z,8.30
2023-10-02T07:31:22.743Z,7.90
2023-10-02T07:33:56.913Z,8.10
2023-10-02T07:36:28.470Z,7.80
2023-10-02T07:38:56.786Z,8.00
2023-10-02T07:41:29.669Z,8.10
2023-10-02T07:44:09.083Z,8.10
2023-10-02T07:46:38.249Z,7.60
2023-10-02T07:49:07.254Z,7.90
2023-10-02T07:51:38.119Z,7.70
2023-10-02T07:54:09.268Z,7.90
2023-10-02T07:56:37.486Z,7.80
2023-10-02T07:59:09.090Z,9.20
2023-10-02T08:01:37.552Z,7.70
2023-10-02T08:04:07.426Z,7.30
2023-10-02T08:06:38.346Z,6.90
2023-10-02T08:09:29.936Z,7.40
2023-10-02T08:11:59.758Z,7.60
2023-10-02T08:14:39.531Z,6.70
2023-10-02T08:17:29.118Z,14.00
2023-10-02T08:20:00.480Z,6.90
2023-10-02T08:22:45.734Z,12.90
2023-10-02T08:25:15.820Z,10.90
2023-10-02T08:27:46.029Z,6.80
2023-10-02T08:30:30.084Z,6.40
2023-10-02T08:33:09.979Z,6.20
2023-10-02T08:35:47.384Z,6.50
2023-10-02T08:38:25.818Z,13.10
2023-10-02T08:40:59.304Z,9.30
2023-10-02T08:43:43.270Z,6.50
2023-10-02T08:46:23.181Z,10.70
2023-10-02T08:48:58.457Z,8.30
2023-10-02T08:51:37.474Z,6.70
2023-10-02T08:54:07.372Z,7.40
2023-10-02T08:56:46.057Z,6.30
2023-10-02T08:59:28.597Z,6.30
2023-10-02T09:02:10.073Z,6.20
2023-10-02T09:04:38.556Z,6.20
2023-10-02T09:07:22.297Z,7.50
2023-10-02T09:10:05.874Z,6.50
2023-10-02T09:12:52.696Z,7.10
2023-10-02T09:15:32.754Z,6.00
2023-10-02T09:18:18.794Z,6.10
2023-10-02T09:21:14.069Z,6.10
2023-10-02T09:23:51.289Z,6.30
2023-10-02T09:26:34.155Z,6.40
2023-10-02T09:29:06.279Z,6.30
2023-10-02T09:31:36.204Z,6.20
2023-10-02T09:34:18.699Z,6.50
2023-10-02T09:37:48.828Z,6.20
2023-10-02T09:40:07.563Z,5.90
2023-10-02T09:42:37.744Z,5.40
2023-10-02T09:45:10.750Z,5.90
2023-10-02T09:47:51.284Z,5.80
2023-10-02T09:50:31.478Z,5.80
2023-10-02T09:53:03.685Z,5.50
2023-10-02T09:55:49.020Z,5.50
2023-10-02T09:58:29.868Z,5.80
2023-10-02T10:01:28.096Z,5.30
2023-10-02T10:03:58.137Z,5.20
2023-10-02T10:06:29.772Z,4.70
2023-10-02T10:09:16.609Z,5.00
2023-10-02T10:11:44.538Z,4.80
2023-10-02T10:14:46.270Z,4.90
2023-10-02T10:17:23.381Z,4.80
2023-10-02T10:20:10.916Z,4.50
2023-10-02T10:22:51.376Z,4.20
2023-10-02T10:25:22.589Z,4.40
2023-10-02T10:28:06.031Z,4.40
2023-10-02T10:30:40.402Z,4.50
2023-10-02T10:33:11.805Z,4.20
2023-10-02T10:35:53.293Z,4.10
2023-10-02T10:38:30.730Z,4.50
2023-10-02T10:41:11.468Z,4.40
2023-10-02T10:43:57.363Z,3.90
2023-10-02T10:46:29.163Z,4.00
2023-10-02T10:49:09.613Z,4.00
2023-10-02T10:51:40.061Z,4.00
2023-10-02T10:54:57.148Z,4.00
2023-10-02T10:57:27.115Z,4.20
2023-10-02T11:00:27.390Z,4.00
2023-10-02T11:02:59.216Z,3.70
2023-10-02T11:05:28.053Z,4.00
2023-10-02T11:08:00.653Z,3.90
2023-10-02T11:10:32.328Z,3.40
2023-10-02T11:13:12.822Z,3.00
2023-10-02T11:15:46.753Z,2.90
2023-10-02T11:18:24.963Z,3.30
2023-10-02T11:21:01.684Z,3.10
2023-10-02T11:23:40.231Z,3.00
2023-10-02T11:26:15.121Z,3.10
2023-10-02T11:28:56.361Z,3.20
2023-10-02T11:31:45.376Z,3.00
2023-10-02T11:36:54.037Z,3.10
2023-10-02T11:45:50.326Z,2.80
2023-10-02T11:48:18.496Z,3.10
2023-10-02T11:50:48.250Z,2.80
2023-10-02T11:53:16.903Z,2.90
2023-10-02T11:55:45.144Z,3.20
2023-10-02T11:58:15.957Z,3.30
2023-10-02T12:00:46.533Z,3.20
2023-10-02T12:03:17.544Z,2.80
2023-10-02T12:05:47.770Z,3.00
2023-10-02T12:08:21.912Z,3.10
2023-10-02T12:10:55.463Z,3.10
2023-10-02T12:13:23.873Z,2.90
2023-10-02T12:15:53.810Z,2.70
2023-10-02T12:18:22.864Z,2.90
2023-10-02T12:20:50.981Z,3.00
2023-10-02T12:23:20.756Z,3.10
2023-10-02T12:25:49.690Z,3.10
2023-10-02T12:28:20.410Z,3.10
2023-10-02T12:30:50.123Z,3.10
2023-10-02T12:33:33.587Z,2.90
2023-10-02T12:36:21.486Z,3.00
2023-10-02T12:38:52.003Z,2.90
2023-10-02T12:41:29.102Z,2.80
2023-10-02T12:43:57.961Z,3.10
2023-10-02T12:46:32.968Z,3.10
2023-10-02T12:49:02.580Z,2.80
2023-10-02T12:51:32.572Z,2.70
2023-10-02T12:54:00.504Z,2.90
2023-10-02T12:56:28.879Z,3.20
2023-10-02T12:58:57.323Z,2.80
2023-10-02T13:01:28.706Z,3.10
2023-10-02T13:04:00.945Z,2.90
2023-10-02T13:06:31.083Z,3.10
2023-10-02T13:09:25.767Z,2.90
2023-10-02T13:11:56.720Z,3.00
2023-10-02T13:14:24.855Z,3.00
2023-10-02T13:16:53.930Z,3.30
2023-10-02T13:19:25.136Z,3.30
2023-10-02T13:21:55.162Z,2.90
2023-10-02T13:24:25.680Z,3.20
2023-10-02T13:26:55.076Z,3.00
2023-10-02T13:29:25.641Z,2.70
2023-10-02T13:31:54.103Z,3.10
2023-10-02T13:34:22.534Z,3.00
2023-10-02T13:36:50.775Z,2.90
2023-10-02T13:39:19.708Z,2.80
2023-10-02T13:41:48.544Z,3.20
2023-10-02T13:44:19.049Z,3.10
2023-10-02T13:46:50.211Z,3.10
2023-10-02T13:49:22.803Z,2.90
2023-10-02T13:51:52.337Z,3.50
2023-10-02T13:54:21.456Z,3.00
2023-10-02T13:56:54.168Z,3.40
2023-10-02T13:59:22.791Z,3.20
2023-10-02T14:01:51.030Z,3.20
2023-10-02T14:04:20.672Z,3.40
2023-10-02T14:06:50.344Z,3.40
2023-10-02T14:09:22.138Z,3.30
2023-10-02T14:11:52.477Z,3.10
2023-10-02T14:14:21.940Z,3.40
2023-10-02T14:16:53.712Z,3.10
2023-10-02T14:19:23.538Z,3.50
2023-10-02T14:21:53.063Z,3.40
2023-10-02T14:24:21.240Z,3.00
2023-10-02T14:26:51.707Z,3.20
2023-10-02T14:29:20.297Z,3.30
2023-10-02T14:31:48.856Z,3.40
2023-10-02T14:34:17.092Z,3.50
2023-10-02T14:36:45.446Z,3.80
2023-10-02T14:39:16.942Z,3.30
2023-10-02T14:41:45.183Z,3.50
2023-10-02T14:44:16.224Z,3.70
2023-10-02T14:46:45.004Z,3.30
2023-10-02T14:49:13.046Z,3.60
2023-10-02T14:51:41.609Z,3.80
2023-10-02T14:54:09.595Z,3.50
2023-10-02T14:56:38.810Z,3.50
2023-10-02T14:59:07.746Z,3.30
2023-10-02T15:01:36.866Z,3.30
2023-10-02T15:04:05.182Z,3.50
2023-10-02T15:06:34.477Z,3.50
2023-10-02T15:09:04.490Z,3.60
2023-10-02T15:11:37.602Z,3.80
2023-10-02T15:14:05.893Z,3.80
2023-10-02T15:16:38.170Z,3.30
2023-10-02T15:19:07.519Z,3.70
2023-10-02T15:21:36.562Z,3.60
2023-10-02T15:24:05.393Z,3.40
2023-10-02T15:26:34.240Z,3.40
2023-10-02T15:29:05.434Z,3.50
2023-10-02T15:31:33.719Z,3.90
2023-10-02T15:34:04.120Z,3.80
2023-10-02T15:36:32.177Z,4.10
2023-10-02T15:39:04.111Z,4.30
2023-10-02T15:41:33.742Z,4.00
2023-10-02T15:52:37.440Z,3.20
2023-10-02T15:55:11.590Z,3.80
2023-10-02T15:57:41.565Z,4.20
2023-10-02T16:00:14.518Z,4.20
2023-10-02T16:02:46.969Z,4.40
2023-10-02T16:05:14.992Z,5.00
2023-10-02T16:07:44.052Z,4.30
2023-10-02T16:10:14.680Z,4.40
2023-10-02T16:12:46.995Z,4.10
2023-10-02T16:15:16.769Z,3.60
2023-10-02T16:17:49.374Z,4.00
2023-10-02T16:20:22.933Z,3.90
2023-10-02T16:22:55.248Z,3.40
2023-10-02T16:25:23.554Z,3.50
2023-10-02T16:27:53.720Z,3.40
2023-10-02T16:30:28.158Z,3.30
2023-10-02T16:32:56.818Z,3.40
2023-10-02T16:35:32.971Z,3.10
2023-10-02T16:38:05.208Z,3.30
2023-10-02T16:40:34.700Z,3.60
2023-10-02T16:43:05.800Z,3.10
2023-10-02T16:45:34.577Z,3.10
2023-10-02T16:48:06.953Z,3.20
2023-10-02T16:50:36.747Z,2.90
2023-10-02T16:53:04.932Z,3.00
2023-10-02T16:55:33.107Z,3.00
2023-10-02T16:58:01.952Z,3.20
2023-10-02T17:00:29.978Z,3.20
2023-10-02T17:02:59.167Z,3.40
2023-10-02T17:05:29.531Z,3.80
2023-10-02T17:07:59.648Z,3.70
2023-10-02T17:10:27.676Z,4.20
2023-10-02T17:13:01.132Z,3.70
2023-10-02T17:15:34.535Z,4.20
2023-10-02T17:18:03.011Z,4.00
2023-10-02T17:20:31.063Z,4.10
2023-10-02T17:23:02.382Z,4.00
2023-10-02T17:25:30.794Z,4.10
2023-10-02T17:28:02.564Z,3.70
2023-10-02T17:30:33.275Z,3.70
2023-10-02T17:33:03.236Z,4.00
2023-10-02T17:35:31.617Z,4.10
2023-10-02T17:38:00.574Z,3.80
2023-10-02T17:40:28.616Z,3.90
2023-10-02T17:42:56.967Z,3.70
2023-10-02T17:45:25.375Z,4.10
2023-10-02T17:47:53.514Z,4.30
2023-10-02T17:50:22.740Z,4.30
2023-10-02T17:52:50.731Z,4.70
2023-10-02T17:55:18.847Z,4.60
2023-10-02T17:57:48.707Z,4.00
2023-10-02T18:00:19.303Z,4.40
2023-10-02T18:02:48.760Z,4.70
2023-10-02T18:05:18.070Z,5.00
2023-10-02T18:07:46.546Z,5.00
2023-10-02T18:10:16.400Z,4.90
2023-10-02T18:12:44.700Z,4.90
2023-10-02T18:15:15.934Z,5.00
2023-10-02T18:17:45.279Z,4.40
2023-10-02T18:20:14.138Z,4.60
2023-10-02T18:22:45.142Z,4.80
2023-10-02T18:25:13.251Z,4.90
2023-10-02T18:27:41.186Z,5.00
2023-10-02T18:30:10.758Z,5.00
2023-10-02T18:32:39.398Z,4.30
2023-10-02T18:35:11.027Z,4.50
2023-10-02T18:37:39.527Z,4.50
2023-10-02T18:40:10.011Z,4.50
2023-10-02T18:42:38.874Z,4.60
2023-10-02T18:45:07.776Z,4.20
2023-10-02T18:47:36.311Z,4.60
2023-10-02T18:50:07.404Z,4.60
2023-10-02T18:52:38.416Z,4.60
2023-10-02T18:55:08.917Z,4.90
2023-10-02T18:57:40.034Z,5.00
2023-10-02T19:00:12.724Z,5.10
2023-10-02T19:02:41.010Z,5.30
2023-10-02T19:05:09.687Z,5.10
2023-10-02T19:07:39.120Z,4.90
2023-10-02T19:10:07.866Z,5.00
2023-10-02T19:12:36.010Z,5.20
2023-10-02T19:15:04.773Z,5.00
2023-10-02T19:17:33.896Z,5.50
2023-10-02T19:20:06.812Z,5.00
2023-10-02T19:22:36.842Z,5.10
2023-10-02T19:25:05.401Z,5.20
2023-10-02T19:27:33.490Z,5.30
2023-10-02T19:30:01.284Z,4.90
2023-10-02T19:32:29.701Z,5.30
2023-10-02T19:34:57.639Z,4.80
2023-10-02T19:37:25.674Z,5.40
2023-10-02T19:39:54.748Z,5.70
2023-10-02T19:42:22.718Z,5.70
2023-10-02T19:44:50.723Z,6.20
2023-10-02T19:47:18.622Z,5.90
2023-10-02T19:49:46.928Z,6.90
2023-10-02T19:52:14.920Z,7.10
2023-10-02T19:54:44.185Z,7.30
2023-10-02T19:57:12.210Z,7.30
2023-10-02T19:59:40.229Z,7.10
2023-10-02T20:02:08.251Z,6.70
2023-10-02T20:04:37.222Z,6.70
2023-10-02T20:07:05.124Z,6.60
2023-10-02T20:09:34.809Z,6.30
2023-10-02T20:12:02.795Z,6.40
2023-10-02T20:14:30.837Z,6.60
2023-10-02T20:16:59.208Z,6.90
2023-10-02T20:19:28.147Z,6.50
2023-10-02T20:21:56.079Z,6.80
2023-10-02T20:24:23.977Z,6.50
2023-10-02T20:26:52.231Z,6.50
2023-10-02T20:29:20.377Z,6.30
2023-10-02T20:31:49.989Z,6.70
2023-10-02T20:34:30.719Z,6.90
2023-10-02T20:37:05.590Z,6.50
2023-10-02T20:39:33.590Z,6.50
2023-10-02T20:42:02.385Z,6.70
2023-10-02T20:44:33.032Z,6.80
2023-10-02T20:47:12.273Z,6.50
2023-10-02T20:49:44.314Z,6.70
2023-10-02T20:52:12.762Z,6.50
2023-10-02T20:54:40.645Z,6.60
2023-10-02T20:57:09.406Z,6.70
2023-10-02T20:59:38.081Z,6.50
2023-10-02T21:02:06.137Z,6.30
2023-10-02T21:04:34.502Z,6.50
2023-10-02T21:07:02.511Z,6.70
2023-10-02T21:09:31.023Z,6.70
2023-10-02T21:11:58.817Z,6.90
2023-10-02T21:14:26.749Z,6.90
2023-10-02T21:16:54.596Z,7.00
2023-10-02T21:19:22.451Z,6.90
2023-10-02T21:21:53.292Z,6.50
2023-10-02T21:24:24.664Z,6.70
2023-10-02T21:26:52.692Z,6.60
2023-10-02T21:29:20.639Z,6.80
2023-10-02T21:31:48.445Z,7.10
2023-10-02T21:34:17.030Z,7.10
2023-10-02T21:36:44.946Z,7.20
2023-10-02T21:39:15.695Z,7.20
2023-10-02T21:41:45.778Z,7.20
2023-10-02T21:44:13.804Z,7.10
2023-10-02T21:46:41.795Z,7.20
2023-10-02T21:49:09.619Z,7.10
2023-10-02T21:51:37.613Z,7.10
2023-10-02T21:54:06.962Z,7.20
2023-10-02T21:56:36.235Z,7.10
2023-10-02T21:59:04.701Z,7.10
2023-10-02T22:01:33.604Z,7.20
2023-10-02T22:04:02.274Z,7.70
2023-10-02T22:06:30.830Z,7.60
2023-10-02T22:08:58.993Z,7.20
2023-10-02T22:11:27.073Z,7.30
2023-10-02T22:13:54.963Z,7.40
2023-10-02T22:16:28.107Z,7.60
2023-10-02T22:18:55.910Z,7.20
2023-10-02T22:21:25.658Z,7.10
2023-10-02T22:23:54.348Z,7.30
2023-10-02T22:26:22.306Z,7.40
2023-10-02T22:28:50.343Z,7.30
2023-10-02T22:31:18.914Z,7.60
2023-10-02T22:33:48.385Z,7.90
2023-10-02T22:36:17.659Z,7.40
2023-10-02T22:38:46.351Z,7.50
2023-10-02T22:41:14.939Z,7.60
2023-10-02T22:43:42.955Z,7.80
2023-10-02T22:46:12.641Z,7.60
2023-10-02T22:48:40.800Z,7.40
2023-10-02T22:51:09.323Z,7.50
2023-10-02T22:53:38.355Z,7.60
2023-10-02T22:56:06.400Z,7.50
2023-10-02T22:58:34.404Z,7.20
2023-10-02T23:01:05.546Z,7.80
2023-10-02T23:03:35.015Z,7.50
2023-10-02T23:06:07.048Z,7.50
2023-10-02T23:08:35.000Z,7.60
2023-10-02T23:11:07.907Z,7.10
2023-10-02T23:13:35.847Z,7.50
2023-10-02T23:16:03.829Z,7.60
2023-10-02T23:18:36.542Z,7.60
2023-10-02T23:21:04.725Z,7.60
2023-10-02T23:23:32.995Z,7.90
2023-10-02T23:26:00.857Z,7.60
2023-10-02T23:28:28.677Z,7.20
2023-10-02T23:30:56.716Z,8.20
2023-10-02T23:33:24.875Z,7.70
2023-10-02T23:35:54.133Z,8.20
2023-10-02T23:38:22.170Z,8.40
2023-10-02T23:40:50.004Z,7.70
2023-10-02T23:43:20.661Z,7.60
2023-10-02T23:45:52.402Z,8.00
2023-10-02T23:48:21.875Z,8.00
2023-10-02T23:50:50.714Z,8.50
2023-10-02T23:53:25.876Z,8.10
2023-10-02T23:56:04.734Z,8.40
2023-10-02T23:58:33.556Z,8.00
